sensor_id;sensor_type;location;lat;lon;timestamp;P1;durP1;ratioP1;P2;durP2;ratioP2
5217;SDS011;26539;51.064;6.346;2022-12-07T00:01:41;25.73;;;17.25;;
5217;SDS011;26539;51.064;6.346;2022-12-07T00:04:10;28.67;;;17.70;;
5217;SDS011;26539;51.064;6.346;2022-12-07T00:06:38;27.60;;;17.75;;
5217;SDS011;26539;51.064;6.346;2022-12-07T00:09:05;23.10;;;17.27;;
5217;SDS011;26539;51.064;6.346;2022-12-07T00:11:31;25.08;;;17.75;;
5217;SDS011;26539;51.064;6.346;2022-12-07T00:13:58;24.48;;;17.52;;
5217;SDS011;26539;51.064;6.346;2022-12-07T00:16:28;28.30;;;17.98;;
5217;SDS011;26539;51.064;6.346;2022-12-07T00:18:55;25.88;;;18.00;;
5217;SDS011;26539;51.064;6.346;2022-12-07T00:21:22;27.08;;;16.77;;
5217;SDS011;26539;51.064;6.346;2022-12-07T00:23:50;31.02;;;18.50;;
5217;SDS011;26539;51.064;6.346;2022-12-07T00:28:47;27.35;;;18.48;;
5217;SDS011;26539;51.064;6.346;2022-12-07T00:31:14;25.10;;;18.88;;
5217;SDS011;26539;51.064;6.346;2022-12-07T00:33:41;24.27;;;17.13;;
5217;SDS011;26539;51.064;6.346;2022-12-07T00:36:08;21.80;;;17.40;;
5217;SDS011;26539;51.064;6.346;2022-12-07T00:38:36;25.40;;;18.50;;
5217;SDS011;26539;51.064;6.346;2022-12-07T00:41:04;27.33;;;19.42;;
5217;SDS011;26539;51.064;6.346;2022-12-07T00:43:33;26.98;;;20.35;;
5217;SDS011;26539;51.064;6.346;2022-12-07T00:45:58;28.05;;;20.10;;
5217;SDS011;26539;51.064;6.346;2022-12-07T00:48:24;29.63;;;20.03;;
5217;SDS011;26539;51.064;6.346;2022-12-07T00:50:50;28.73;;;19.80;;
5217;SDS011;26539;51.064;6.346;2022-12-07T00:53:16;26.65;;;19.13;;
5217;SDS011;26539;51.064;6.346;2022-12-07T00:55:42;27.35;;;20.10;;
5217;SDS011;26539;51.064;6.346;2022-12-07T00:58:08;25.55;;;18.55;;
5217;SDS011;26539;51.064;6.346;2022-12-07T01:00:38;29.53;;;20.30;;
5217;SDS011;26539;51.064;6.346;2022-12-07T01:03:05;27.75;;;20.65;;
5217;SDS011;26539;51.064;6.346;2022-12-07T01:05:32;32.67;;;22.38;;
5217;SDS011;26539;51.064;6.346;2022-12-07T01:07:57;26.93;;;20.00;;
5217;SDS011;26539;51.064;6.346;2022-12-07T01:10:23;26.23;;;19.60;;
5217;SDS011;26539;51.064;6.346;2022-12-07T01:12:48;31.27;;;22.03;;
5217;SDS011;26539;51.064;6.346;2022-12-07T01:15:14;29.13;;;20.97;;
5217;SDS011;26539;51.064;6.346;2022-12-07T01:17:40;31.97;;;23.07;;
5217;SDS011;26539;51.064;6.346;2022-12-07T01:20:05;31.67;;;22.23;;
5217;SDS011;26539;51.064;6.346;2022-12-07T01:22:36;30.27;;;22.50;;
5217;SDS011;26539;51.064;6.346;2022-12-07T01:25:05;25.65;;;20.83;;
5217;SDS011;26539;51.064;6.346;2022-12-07T01:27:32;31.50;;;21.70;;
5217;SDS011;26539;51.064;6.346;2022-12-07T01:29:58;34.90;;;20.60;;
5217;SDS011;26539;51.064;6.346;2022-12-07T01:32:24;27.43;;;20.80;;
5217;SDS011;26539;51.064;6.346;2022-12-07T01:34:50;37.40;;;23.40;;
5217;SDS011;26539;51.064;6.346;2022-12-07T01:37:15;33.13;;;23.17;;
5217;SDS011;26539;51.064;6.346;2022-12-07T01:39:41;30.20;;;21.83;;
5217;SDS011;26539;51.064;6.346;2022-12-07T01:42:12;33.63;;;23.07;;
5217;SDS011;26539;51.064;6.346;2022-12-07T01:47:41;35.28;;;23.50;;
5217;SDS011;26539;51.064;6.346;2022-12-07T01:50:11;35.92;;;23.17;;
5217;SDS011;26539;51.064;6.346;2022-12-07T01:52:37;32.92;;;23.70;;
5217;SDS011;26539;51.064;6.346;2022-12-07T01:55:06;40.42;;;25.15;;
5217;SDS011;26539;51.064;6.346;2022-12-07T01:57:34;38.53;;;26.30;;
5217;SDS011;26539;51.064;6.346;2022-12-07T02:00:04;36.65;;;26.17;;
5217;SDS011;26539;51.064;6.346;2022-12-07T02:02:33;38.05;;;26.30;;
5217;SDS011;26539;51.064;6.346;2022-12-07T02:05:02;39.13;;;25.67;;
5217;SDS011;26539;51.064;6.346;2022-12-07T02:07:30;37.25;;;25.30;;
5217;SDS011;26539;51.064;6.346;2022-12-07T02:10:11;37.88;;;25.08;;
5217;SDS011;26539;51.064;6.346;2022-12-07T02:12:38;39.15;;;25.92;;
5217;SDS011;26539;51.064;6.346;2022-12-07T02:15:04;39.27;;;24.83;;
5217;SDS011;26539;51.064;6.346;2022-12-07T02:20:26;36.13;;;25.85;;
5217;SDS011;26539;51.064;6.346;2022-12-07T02:25:50;39.78;;;27.52;;
5217;SDS011;26539;51.064;6.346;2022-12-07T02:28:21;38.55;;;28.10;;
5217;SDS011;26539;51.064;6.346;2022-12-07T02:30:57;39.63;;;27.45;;
5217;SDS011;26539;51.064;6.346;2022-12-07T02:33:31;42.33;;;26.75;;
5217;SDS011;26539;51.064;6.346;2022-12-07T02:36:10;38.92;;;27.85;;
5217;SDS011;26539;51.064;6.346;2022-12-07T02:38:48;34.75;;;25.45;;
5217;SDS011;26539;51.064;6.346;2022-12-07T02:41:21;41.05;;;27.63;;
5217;SDS011;26539;51.064;6.346;2022-12-07T02:43:52;33.28;;;24.15;;
5217;SDS011;26539;51.064;6.346;2022-12-07T02:46:24;43.53;;;27.35;;
5217;SDS011;26539;51.064;6.346;2022-12-07T02:49:06;33.85;;;25.35;;
5217;SDS011;26539;51.064;6.346;2022-12-07T02:51:33;34.38;;;27.23;;
5217;SDS011;26539;51.064;6.346;2022-12-07T02:54:07;31.98;;;25.20;;
5217;SDS011;26539;51.064;6.346;2022-12-07T02:59:20;33.33;;;26.17;;
5217;SDS011;26539;51.064;6.346;2022-12-07T03:10:27;68.32;;;28.00;;
5217;SDS011;26539;51.064;6.346;2022-12-07T03:13:13;42.67;;;26.75;;
5217;SDS011;26539;51.064;6.346;2022-12-07T03:15:49;39.85;;;26.98;;
5217;SDS011;26539;51.064;6.346;2022-12-07T03:18:29;40.05;;;25.95;;
5217;SDS011;26539;51.064;6.346;2022-12-07T03:20:58;37.55;;;26.58;;
5217;SDS011;26539;51.064;6.346;2022-12-07T03:23:31;41.50;;;27.42;;
5217;SDS011;26539;51.064;6.346;2022-12-07T03:26:00;37.50;;;26.90;;
5217;SDS011;26539;51.064;6.346;2022-12-07T03:28:29;41.63;;;26.10;;
5217;SDS011;26539;51.064;6.346;2022-12-07T03:31:04;33.60;;;24.58;;
5217;SDS011;26539;51.064;6.346;2022-12-07T03:33:46;35.28;;;25.35;;
5217;SDS011;26539;51.064;6.346;2022-12-07T03:36:25;36.83;;;25.40;;
5217;SDS011;26539;51.064;6.346;2022-12-07T03:42:06;35.05;;;27.02;;
5217;SDS011;26539;51.064;6.346;2022-12-07T03:44:34;40.47;;;26.52;;
5217;SDS011;26539;51.064;6.346;2022-12-07T03:49:37;33.87;;;24.50;;
5217;SDS011;26539;51.064;6.346;2022-12-07T03:52:11;36.50;;;25.15;;
5217;SDS011;26539;51.064;6.346;2022-12-07T03:54:56;32.90;;;25.60;;
5217;SDS011;26539;51.064;6.346;2022-12-07T03:57:42;37.38;;;26.23;;
5217;SDS011;26539;51.064;6.346;2022-12-07T04:00:11;36.35;;;25.67;;
5217;SDS011;26539;51.064;6.346;2022-12-07T04:02:37;36.78;;;25.67;;
5217;SDS011;26539;51.064;6.346;2022-12-07T04:05:04;32.78;;;24.52;;
5217;SDS011;26539;51.064;6.346;2022-12-07T04:07:30;32.88;;;23.65;;
5217;SDS011;26539;51.064;6.346;2022-12-07T04:09:55;31.53;;;23.40;;
5217;SDS011;26539;51.064;6.346;2022-12-07T04:12:21;34.17;;;23.93;;
5217;SDS011;26539;51.064;6.346;2022-12-07T04:14:47;32.63;;;24.45;;
5217;SDS011;26539;51.064;6.346;2022-12-07T04:17:13;32.50;;;25.90;;
5217;SDS011;26539;51.064;6.346;2022-12-07T04:19:38;34.67;;;24.93;;
5217;SDS011;26539;51.064;6.346;2022-12-07T04:22:04;35.57;;;25.60;;
5217;SDS011;26539;51.064;6.346;2022-12-07T04:24:30;38.47;;;27.38;;
5217;SDS011;26539;51.064;6.346;2022-12-07T04:26:56;40.10;;;27.30;;
5217;SDS011;26539;51.064;6.346;2022-12-07T04:29:22;41.80;;;27.60;;
5217;SDS011;26539;51.064;6.346;2022-12-07T04:31:48;39.65;;;26.77;;
5217;SDS011;26539;51.064;6.346;2022-12-07T04:34:15;46.47;;;28.95;;
5217;SDS011;26539;51.064;6.346;2022-12-07T04:36:41;35.08;;;24.50;;
5217;SDS011;26539;51.064;6.346;2022-12-07T04:39:08;39.05;;;27.27;;
5217;SDS011;26539;51.064;6.346;2022-12-07T04:41:43;40.63;;;26.33;;
5217;SDS011;26539;51.064;6.346;2022-12-07T04:44:09;41.40;;;27.00;;
5217;SDS011;26539;51.064;6.346;2022-12-07T04:46:36;40.78;;;27.15;;
5217;SDS011;26539;51.064;6.346;2022-12-07T04:49:01;41.80;;;27.90;;
5217;SDS011;26539;51.064;6.346;2022-12-07T04:51:27;39.23;;;27.93;;
5217;SDS011;26539;51.064;6.346;2022-12-07T04:53:54;37.72;;;25.80;;
5217;SDS011;26539;51.064;6.346;2022-12-07T04:56:20;40.88;;;26.52;;
5217;SDS011;26539;51.064;6.346;2022-12-07T04:58:47;39.25;;;25.98;;
5217;SDS011;26539;51.064;6.346;2022-12-07T05:01:13;38.88;;;26.45;;
5217;SDS011;26539;51.064;6.346;2022-12-07T05:03:40;38.20;;;26.60;;
5217;SDS011;26539;51.064;6.346;2022-12-07T05:06:06;37.20;;;25.33;;
5217;SDS011;26539;51.064;6.346;2022-12-07T05:08:32;40.40;;;25.80;;
5217;SDS011;26539;51.064;6.346;2022-12-07T05:10:58;39.45;;;26.25;;
5217;SDS011;26539;51.064;6.346;2022-12-07T05:13:24;33.50;;;24.27;;
5217;SDS011;26539;51.064;6.346;2022-12-07T05:15:50;36.77;;;26.30;;
5217;SDS011;26539;51.064;6.346;2022-12-07T05:18:15;33.77;;;24.53;;
5217;SDS011;26539;51.064;6.346;2022-12-07T05:20:41;31.10;;;23.87;;
5217;SDS011;26539;51.064;6.346;2022-12-07T05:23:08;36.67;;;24.50;;
5217;SDS011;26539;51.064;6.346;2022-12-07T05:25:34;33.73;;;24.73;;
5217;SDS011;26539;51.064;6.346;2022-12-07T05:28:00;41.83;;;26.48;;
5217;SDS011;26539;51.064;6.346;2022-12-07T05:30:26;34.60;;;25.57;;
5217;SDS011;26539;51.064;6.346;2022-12-07T05:32:51;37.45;;;25.13;;
5217;SDS011;26539;51.064;6.346;2022-12-07T05:35:17;34.90;;;24.90;;
5217;SDS011;26539;51.064;6.346;2022-12-07T05:37:44;32.95;;;24.25;;
5217;SDS011;26539;51.064;6.346;2022-12-07T05:40:10;38.90;;;25.13;;
5217;SDS011;26539;51.064;6.346;2022-12-07T05:42:37;35.55;;;23.63;;
5217;SDS011;26539;51.064;6.346;2022-12-07T05:45:03;33.53;;;24.03;;
5217;SDS011;26539;51.064;6.346;2022-12-07T05:47:29;28.92;;;22.23;;
5217;SDS011;26539;51.064;6.346;2022-12-07T05:49:54;32.03;;;24.40;;
5217;SDS011;26539;51.064;6.346;2022-12-07T05:52:20;33.87;;;22.63;;
5217;SDS011;26539;51.064;6.346;2022-12-07T05:54:46;27.55;;;20.02;;
5217;SDS011;26539;51.064;6.346;2022-12-07T05:57:13;31.58;;;22.92;;
5217;SDS011;26539;51.064;6.346;2022-12-07T05:59:38;32.80;;;22.50;;
5217;SDS011;26539;51.064;6.346;2022-12-07T06:02:08;32.17;;;22.20;;
5217;SDS011;26539;51.064;6.346;2022-12-07T06:04:37;35.42;;;22.30;;
5217;SDS011;26539;51.064;6.346;2022-12-07T06:07:05;29.02;;;20.60;;
5217;SDS011;26539;51.064;6.346;2022-12-07T06:09:31;29.98;;;21.63;;
5217;SDS011;26539;51.064;6.346;2022-12-07T06:11:57;30.45;;;21.52;;
5217;SDS011;26539;51.064;6.346;2022-12-07T06:14:42;28.80;;;20.05;;
5217;SDS011;26539;51.064;6.346;2022-12-07T06:17:08;28.20;;;19.83;;
5217;SDS011;26539;51.064;6.346;2022-12-07T06:19:34;28.35;;;21.15;;
5217;SDS011;26539;51.064;6.346;2022-12-07T06:22:00;31.50;;;22.40;;
5217;SDS011;26539;51.064;6.346;2022-12-07T06:24:26;28.40;;;21.00;;
5217;SDS011;26539;51.064;6.346;2022-12-07T06:26:52;29.97;;;20.03;;
5217;SDS011;26539;51.064;6.346;2022-12-07T06:29:17;27.60;;;20.03;;
5217;SDS011;26539;51.064;6.346;2022-12-07T06:31:43;31.95;;;20.67;;
5217;SDS011;26539;51.064;6.346;2022-12-07T06:34:10;29.47;;;20.93;;
5217;SDS011;26539;51.064;6.346;2022-12-07T06:36:38;27.75;;;20.67;;
5217;SDS011;26539;51.064;6.346;2022-12-07T06:39:04;31.90;;;22.30;;
5217;SDS011;26539;51.064;6.346;2022-12-07T06:41:30;32.00;;;22.60;;
5217;SDS011;26539;51.064;6.346;2022-12-07T06:43:56;26.43;;;21.40;;
5217;SDS011;26539;51.064;6.346;2022-12-07T06:46:21;33.50;;;21.50;;
5217;SDS011;26539;51.064;6.346;2022-12-07T06:48:47;28.85;;;21.58;;
5217;SDS011;26539;51.064;6.346;2022-12-07T06:51:13;24.80;;;19.13;;
5217;SDS011;26539;51.064;6.346;2022-12-07T06:53:38;32.43;;;21.97;;
5217;SDS011;26539;51.064;6.346;2022-12-07T06:56:04;28.13;;;19.97;;
5217;SDS011;26539;51.064;6.346;2022-12-07T06:58:30;29.97;;;20.47;;
5217;SDS011;26539;51.064;6.346;2022-12-07T07:00:56;27.97;;;19.70;;
5217;SDS011;26539;51.064;6.346;2022-12-07T07:03:21;31.23;;;21.90;;
5217;SDS011;26539;51.064;6.346;2022-12-07T07:05:47;32.87;;;22.23;;
5217;SDS011;26539;51.064;6.346;2022-12-07T07:08:13;30.63;;;22.20;;
5217;SDS011;26539;51.064;6.346;2022-12-07T07:10:38;28.97;;;21.47;;
5217;SDS011;26539;51.064;6.346;2022-12-07T07:13:04;31.30;;;21.35;;
5217;SDS011;26539;51.064;6.346;2022-12-07T07:15:30;36.30;;;21.40;;
5217;SDS011;26539;51.064;6.346;2022-12-07T07:17:56;25.45;;;20.98;;
5217;SDS011;26539;51.064;6.346;2022-12-07T07:20:22;26.97;;;20.50;;
5217;SDS011;26539;51.064;6.346;2022-12-07T07:22:47;24.67;;;19.63;;
5217;SDS011;26539;51.064;6.346;2022-12-07T07:25:14;31.48;;;21.58;;
5217;SDS011;26539;51.064;6.346;2022-12-07T07:27:40;31.88;;;23.25;;
5217;SDS011;26539;51.064;6.346;2022-12-07T07:30:06;31.20;;;25.00;;
5217;SDS011;26539;51.064;6.346;2022-12-07T07:32:32;38.80;;;25.40;;
5217;SDS011;26539;51.064;6.346;2022-12-07T07:34:58;32.90;;;23.60;;
5217;SDS011;26539;51.064;6.346;2022-12-07T07:37:23;34.27;;;23.43;;
5217;SDS011;26539;51.064;6.346;2022-12-07T07:39:49;27.80;;;20.73;;
5217;SDS011;26539;51.064;6.346;2022-12-07T07:42:14;26.70;;;22.70;;
5217;SDS011;26539;51.064;6.346;2022-12-07T07:44:40;26.43;;;20.47;;
5217;SDS011;26539;51.064;6.346;2022-12-07T07:47:05;31.00;;;22.73;;
5217;SDS011;26539;51.064;6.346;2022-12-07T07:49:31;32.40;;;24.00;;
5217;SDS011;26539;51.064;6.346;2022-12-07T07:51:57;28.50;;;20.80;;
5217;SDS011;26539;51.064;6.346;2022-12-07T07:54:22;27.50;;;21.47;;
5217;SDS011;26539;51.064;6.346;2022-12-07T07:56:48;40.20;;;23.33;;
5217;SDS011;26539;51.064;6.346;2022-12-07T07:59:14;28.93;;;21.90;;
5217;SDS011;26539;51.064;6.346;2022-12-07T08:01:40;29.55;;;20.27;;
5217;SDS011;26539;51.064;6.346;2022-12-07T08:04:05;36.20;;;21.20;;
5217;SDS011;26539;51.064;6.346;2022-12-07T08:06:31;32.50;;;20.83;;
5217;SDS011;26539;51.064;6.346;2022-12-07T08:08:56;31.40;;;21.90;;
5217;SDS011;26539;51.064;6.346;2022-12-07T08:11:23;27.83;;;20.13;;
5217;SDS011;26539;51.064;6.346;2022-12-07T08:13:48;29.93;;;20.57;;
5217;SDS011;26539;51.064;6.346;2022-12-07T08:16:14;28.10;;;20.37;;
5217;SDS011;26539;51.064;6.346;2022-12-07T08:18:40;29.33;;;21.20;;
5217;SDS011;26539;51.064;6.346;2022-12-07T08:21:06;34.50;;;20.40;;
5217;SDS011;26539;51.064;6.346;2022-12-07T08:23:34;29.25;;;19.38;;
5217;SDS011;26539;51.064;6.346;2022-12-07T08:26:03;33.13;;;19.97;;
5217;SDS011;26539;51.064;6.346;2022-12-07T08:28:30;27.95;;;18.63;;
5217;SDS011;26539;51.064;6.346;2022-12-07T08:31:03;24.60;;;18.80;;
5217;SDS011;26539;51.064;6.346;2022-12-07T08:33:34;31.90;;;21.00;;
5217;SDS011;26539;51.064;6.346;2022-12-07T08:36:00;27.58;;;20.45;;
5217;SDS011;26539;51.064;6.346;2022-12-07T08:38:27;30.70;;;18.73;;
5217;SDS011;26539;51.064;6.346;2022-12-07T08:40:54;27.33;;;18.40;;
5217;SDS011;26539;51.064;6.346;2022-12-07T08:43:20;26.53;;;18.73;;
5217;SDS011;26539;51.064;6.346;2022-12-07T08:45:46;32.20;;;18.20;;
5217;SDS011;26539;51.064;6.346;2022-12-07T08:48:16;26.10;;;17.50;;
5217;SDS011;26539;51.064;6.346;2022-12-07T08:50:46;22.37;;;16.80;;
5217;SDS011;26539;51.064;6.346;2022-12-07T08:53:13;25.13;;;17.87;;
5217;SDS011;26539;51.064;6.346;2022-12-07T08:55:38;21.17;;;15.73;;
5217;SDS011;26539;51.064;6.346;2022-12-07T08:58:04;23.97;;;16.77;;
5217;SDS011;26539;51.064;6.346;2022-12-07T09:00:29;26.20;;;14.07;;
5217;SDS011;26539;51.064;6.346;2022-12-07T09:02:55;22.60;;;16.00;;
5217;SDS011;26539;51.064;6.346;2022-12-07T09:05:21;18.60;;;15.20;;
5217;SDS011;26539;51.064;6.346;2022-12-07T09:07:47;25.23;;;15.93;;
5217;SDS011;26539;51.064;6.346;2022-12-07T09:10:17;24.40;;;16.03;;
5217;SDS011;26539;51.064;6.346;2022-12-07T09:12:43;22.23;;;16.00;;
5217;SDS011;26539;51.064;6.346;2022-12-07T09:15:08;23.27;;;14.03;;
5217;SDS011;26539;51.064;6.346;2022-12-07T09:17:34;24.50;;;16.60;;
5217;SDS011;26539;51.064;6.346;2022-12-07T09:20:01;22.67;;;16.40;;
5217;SDS011;26539;51.064;6.346;2022-12-07T09:22:30;25.00;;;16.67;;
5217;SDS011;26539;51.064;6.346;2022-12-07T09:24:57;21.47;;;16.40;;
5217;SDS011;26539;51.064;6.346;2022-12-07T09:27:23;23.90;;;16.73;;
5217;SDS011;26539;51.064;6.346;2022-12-07T09:29:49;22.00;;;16.10;;
5217;SDS011;26539;51.064;6.346;2022-12-07T09:32:14;25.10;;;16.27;;
5217;SDS011;26539;51.064;6.346;2022-12-07T09:34:40;23.40;;;15.60;;
5217;SDS011;26539;51.064;6.346;2022-12-07T09:37:05;30.17;;;16.20;;
5217;SDS011;26539;51.064;6.346;2022-12-07T09:39:31;25.27;;;16.47;;
5217;SDS011;26539;51.064;6.346;2022-12-07T09:41:57;25.87;;;16.87;;
5217;SDS011;26539;51.064;6.346;2022-12-07T09:44:25;24.60;;;17.30;;
5217;SDS011;26539;51.064;6.346;2022-12-07T09:46:53;23.63;;;16.50;;
5217;SDS011;26539;51.064;6.346;2022-12-07T09:49:19;23.73;;;15.90;;
5217;SDS011;26539;51.064;6.346;2022-12-07T09:51:47;28.57;;;17.50;;
5217;SDS011;26539;51.064;6.346;2022-12-07T09:54:23;23.43;;;16.53;;
5217;SDS011;26539;51.064;6.346;2022-12-07T09:56:49;27.03;;;17.67;;
5217;SDS011;26539;51.064;6.346;2022-12-07T09:59:18;26.40;;;18.10;;
5217;SDS011;26539;51.064;6.346;2022-12-07T10:01:44;25.40;;;17.10;;
5217;SDS011;26539;51.064;6.346;2022-12-07T10:04:21;23.33;;;16.10;;
5217;SDS011;26539;51.064;6.346;2022-12-07T10:06:49;24.07;;;17.00;;
5217;SDS011;26539;51.064;6.346;2022-12-07T10:09:20;22.47;;;16.77;;
5217;SDS011;26539;51.064;6.346;2022-12-07T10:14:34;32.43;;;17.90;;
5217;SDS011;26539;51.064;6.346;2022-12-07T10:17:01;30.97;;;19.07;;
5217;SDS011;26539;51.064;6.346;2022-12-07T10:19:28;26.57;;;17.80;;
5217;SDS011;26539;51.064;6.346;2022-12-07T10:22:09;31.47;;;19.17;;
5217;SDS011;26539;51.064;6.346;2022-12-07T10:24:37;24.70;;;17.93;;
5217;SDS011;26539;51.064;6.346;2022-12-07T10:27:30;29.20;;;19.63;;
5217;SDS011;26539;51.064;6.346;2022-12-07T10:29:57;26.83;;;19.27;;
5217;SDS011;26539;51.064;6.346;2022-12-07T10:32:27;28.40;;;18.83;;
5217;SDS011;26539;51.064;6.346;2022-12-07T10:35:18;27.63;;;19.03;;
5217;SDS011;26539;51.064;6.346;2022-12-07T10:37:54;27.93;;;19.63;;
5217;SDS011;26539;51.064;6.346;2022-12-07T10:40:30;34.27;;;20.37;;
5217;SDS011;26539;51.064;6.346;2022-12-07T10:43:06;31.30;;;20.40;;
5217;SDS011;26539;51.064;6.346;2022-12-07T10:46:03;29.87;;;20.07;;
5217;SDS011;26539;51.064;6.346;2022-12-07T10:48:54;32.80;;;20.37;;
5217;SDS011;26539;51.064;6.346;2022-12-07T10:51:48;27.33;;;19.83;;
5217;SDS011;26539;51.064;6.346;2022-12-07T11:00:22;25.60;;;18.10;;
5217;SDS011;26539;51.064;6.346;2022-12-07T11:02:52;33.83;;;18.60;;
5217;SDS011;26539;51.064;6.346;2022-12-07T11:05:52;24.50;;;16.77;;
5217;SDS011;26539;51.064;6.346;2022-12-07T11:08:43;27.10;;;16.30;;
5217;SDS011;26539;51.064;6.346;2022-12-07T11:11:38;20.30;;;14.80;;
5217;SDS011;26539;51.064;6.346;2022-12-07T11:16:51;22.87;;;15.13;;
5217;SDS011;26539;51.064;6.346;2022-12-07T11:19:39;24.03;;;14.93;;
5217;SDS011;26539;51.064;6.346;2022-12-07T11:22:51;20.40;;;12.63;;
5217;SDS011;26539;51.064;6.346;2022-12-07T11:25:18;20.53;;;10.73;;
5217;SDS011;26539;51.064;6.346;2022-12-07T11:28:09;19.90;;;11.13;;
5217;SDS011;26539;51.064;6.346;2022-12-07T11:30:49;20.13;;;12.23;;
5217;SDS011;26539;51.064;6.346;2022-12-07T11:33:42;18.47;;;11.83;;
5217;SDS011;26539;51.064;6.346;2022-12-07T11:42:33;15.20;;;10.87;;
5217;SDS011;26539;51.064;6.346;2022-12-07T11:44:53;14.97;;;10.30;;
5217;SDS011;26539;51.064;6.346;2022-12-07T11:55:50;14.57;;;10.10;;
5217;SDS011;26539;51.064;6.346;2022-12-07T11:58:54;14.80;;;9.40;;
5217;SDS011;26539;51.064;6.346;2022-12-07T12:06:35;16.37;;;10.70;;
5217;SDS011;26539;51.064;6.346;2022-12-07T12:09:04;13.87;;;9.77;;
5217;SDS011;26539;51.064;6.346;2022-12-07T12:17:48;19.57;;;10.90;;
5217;SDS011;26539;51.064;6.346;2022-12-07T12:20:40;15.40;;;10.40;;
5217;SDS011;26539;51.064;6.346;2022-12-07T12:23:11;18.03;;;10.37;;
5217;SDS011;26539;51.064;6.346;2022-12-07T12:25:50;13.70;;;10.00;;
5217;SDS011;26539;51.064;6.346;2022-12-07T12:31:31;19.30;;;10.67;;
5217;SDS011;26539;51.064;6.346;2022-12-07T12:33:48;15.33;;;9.67;;
5217;SDS011;26539;51.064;6.346;2022-12-07T12:46:57;14.53;;;9.60;;
5217;SDS011;26539;51.064;6.346;2022-12-07T12:51:55;13.60;;;9.20;;
5217;SDS011;26539;51.064;6.346;2022-12-07T12:54:29;15.13;;;9.40;;
5217;SDS011;26539;51.064;6.346;2022-12-07T13:02:34;17.27;;;9.40;;
5217;SDS011;26539;51.064;6.346;2022-12-07T13:10:32;11.33;;;6.80;;
5217;SDS011;26539;51.064;6.346;2022-12-07T13:15:31;11.67;;;5.33;;
5217;SDS011;26539;51.064;6.346;2022-12-07T13:17:58;7.60;;;5.20;;
5217;SDS011;26539;51.064;6.346;2022-12-07T13:20:40;12.43;;;5.70;;
5217;SDS011;26539;51.064;6.346;2022-12-07T13:23:06;9.50;;;5.70;;
5217;SDS011;26539;51.064;6.346;2022-12-07T13:25:36;11.87;;;5.97;;
5217;SDS011;26539;51.064;6.346;2022-12-07T13:30:47;10.73;;;6.90;;
5217;SDS011;26539;51.064;6.346;2022-12-07T13:33:34;9.83;;;7.27;;
5217;SDS011;26539;51.064;6.346;2022-12-07T13:36:00;13.17;;;7.97;;
5217;SDS011;26539;51.064;6.346;2022-12-07T13:38:30;13.00;;;7.53;;
5217;SDS011;26539;51.064;6.346;2022-12-07T13:46:48;13.37;;;8.23;;
5217;SDS011;26539;51.064;6.346;2022-12-07T13:51:51;16.87;;;8.50;;
5217;SDS011;26539;51.064;6.346;2022-12-07T13:54:17;15.03;;;9.43;;
5217;SDS011;26539;51.064;6.346;2022-12-07T13:56:46;17.27;;;9.50;;
5217;SDS011;26539;51.064;6.346;2022-12-07T13:59:19;16.07;;;9.10;;
5217;SDS011;26539;51.064;6.346;2022-12-07T14:01:50;12.73;;;8.57;;
5217;SDS011;26539;51.064;6.346;2022-12-07T14:04:17;22.80;;;8.90;;
5217;SDS011;26539;51.064;6.346;2022-12-07T14:06:47;11.97;;;8.67;;
5217;SDS011;26539;51.064;6.346;2022-12-07T14:09:24;12.13;;;8.83;;
5217;SDS011;26539;51.064;6.346;2022-12-07T14:11:52;11.07;;;8.73;;
5217;SDS011;26539;51.064;6.346;2022-12-07T14:14:22;14.83;;;8.97;;
5217;SDS011;26539;51.064;6.346;2022-12-07T14:17:12;11.07;;;8.20;;
5217;SDS011;26539;51.064;6.346;2022-12-07T14:19:57;11.80;;;7.47;;
5217;SDS011;26539;51.064;6.346;2022-12-07T14:22:26;13.60;;;8.43;;
5217;SDS011;26539;51.064;6.346;2022-12-07T14:24:58;22.80;;;9.83;;
5217;SDS011;26539;51.064;6.346;2022-12-07T14:27:29;12.00;;;8.68;;
5217;SDS011;26539;51.064;6.346;2022-12-07T14:29:59;9.20;;;6.47;;
5217;SDS011;26539;51.064;6.346;2022-12-07T14:32:29;14.38;;;5.93;;
5217;SDS011;26539;51.064;6.346;2022-12-07T14:35:00;13.02;;;5.65;;
5217;SDS011;26539;51.064;6.346;2022-12-07T14:37:28;8.70;;;6.80;;
5217;SDS011;26539;51.064;6.346;2022-12-07T14:39:55;24.47;;;11.63;;
5217;SDS011;26539;51.064;6.346;2022-12-07T14:42:20;20.00;;;10.47;;
5217;SDS011;26539;51.064;6.346;2022-12-07T14:44:49;15.77;;;10.60;;
5217;SDS011;26539;51.064;6.346;2022-12-07T14:47:14;19.23;;;9.10;;
5217;SDS011;26539;51.064;6.346;2022-12-07T14:49:40;10.83;;;8.80;;
5217;SDS011;26539;51.064;6.346;2022-12-07T14:52:06;7.70;;;6.60;;
5217;SDS011;26539;51.064;6.346;2022-12-07T14:54:38;12.48;;;7.60;;
5217;SDS011;26539;51.064;6.346;2022-12-07T14:57:03;9.00;;;7.63;;
5217;SDS011;26539;51.064;6.346;2022-12-07T14:59:29;7.90;;;6.33;;
5217;SDS011;26539;51.064;6.346;2022-12-07T15:01:54;12.70;;;7.13;;
5217;SDS011;26539;51.064;6.346;2022-12-07T15:04:20;9.80;;;7.20;;
5217;SDS011;26539;51.064;6.346;2022-12-07T15:06:55;7.27;;;6.57;;
5217;SDS011;26539;51.064;6.346;2022-12-07T15:09:22;8.48;;;6.60;;
5217;SDS011;26539;51.064;6.346;2022-12-07T15:11:48;13.53;;;7.70;;
5217;SDS011;26539;51.064;6.346;2022-12-07T15:14:13;8.90;;;6.70;;
5217;SDS011;26539;51.064;6.346;2022-12-07T15:16:40;12.17;;;10.13;;
5217;SDS011;26539;51.064;6.346;2022-12-07T15:19:24;17.90;;;12.80;;
5217;SDS011;26539;51.064;6.346;2022-12-07T15:21:52;13.30;;;9.93;;
5217;SDS011;26539;51.064;6.346;2022-12-07T15:24:18;9.90;;;7.70;;
5217;SDS011;26539;51.064;6.346;2022-12-07T15:26:44;9.15;;;8.13;;
5217;SDS011;26539;51.064;6.346;2022-12-07T15:29:10;11.13;;;8.73;;
5217;SDS011;26539;51.064;6.346;2022-12-07T15:31:36;16.88;;;9.60;;
5217;SDS011;26539;51.064;6.346;2022-12-07T15:34:02;15.45;;;10.35;;
5217;SDS011;26539;51.064;6.346;2022-12-07T15:36:29;16.73;;;11.15;;
5217;SDS011;26539;51.064;6.346;2022-12-07T15:38:56;16.08;;;11.68;;
5217;SDS011;26539;51.064;6.346;2022-12-07T15:41:22;15.65;;;12.43;;
5217;SDS011;26539;51.064;6.346;2022-12-07T15:43:48;22.20;;;12.30;;
5217;SDS011;26539;51.064;6.346;2022-12-07T15:46:34;21.38;;;11.40;;
5217;SDS011;26539;51.064;6.346;2022-12-07T15:49:02;21.85;;;11.70;;
5217;SDS011;26539;51.064;6.346;2022-12-07T15:51:28;14.47;;;10.43;;
5217;SDS011;26539;51.064;6.346;2022-12-07T15:53:53;16.30;;;11.20;;
5217;SDS011;26539;51.064;6.346;2022-12-07T15:56:19;12.17;;;10.03;;
5217;SDS011;26539;51.064;6.346;2022-12-07T15:58:45;14.30;;;10.30;;
5217;SDS011;26539;51.064;6.346;2022-12-07T16:01:18;13.00;;;10.53;;
5217;SDS011;26539;51.064;6.346;2022-12-07T16:03:45;14.05;;;10.90;;
5217;SDS011;26539;51.064;6.346;2022-12-07T16:06:14;14.55;;;10.05;;
5217;SDS011;26539;51.064;6.346;2022-12-07T16:08:44;17.98;;;10.55;;
5217;SDS011;26539;51.064;6.346;2022-12-07T16:11:20;17.30;;;10.63;;
5217;SDS011;26539;51.064;6.346;2022-12-07T16:13:48;14.02;;;10.88;;
5217;SDS011;26539;51.064;6.346;2022-12-07T16:16:21;20.95;;;13.45;;
5217;SDS011;26539;51.064;6.346;2022-12-07T16:18:50;16.40;;;12.10;;
5217;SDS011;26539;51.064;6.346;2022-12-07T16:21:16;16.33;;;12.00;;
5217;SDS011;26539;51.064;6.346;2022-12-07T16:23:43;17.15;;;12.57;;
5217;SDS011;26539;51.064;6.346;2022-12-07T16:26:13;23.60;;;11.88;;
5217;SDS011;26539;51.064;6.346;2022-12-07T16:28:40;15.38;;;11.98;;
5217;SDS011;26539;51.064;6.346;2022-12-07T16:31:08;19.98;;;11.75;;
5217;SDS011;26539;51.064;6.346;2022-12-07T16:33:38;21.50;;;13.63;;
5217;SDS011;26539;51.064;6.346;2022-12-07T16:36:06;17.27;;;14.38;;